Abbeville, LA

9:22 AM CDT on April 28, 2017 (GMT -0500)
Abbeville

Weather History for KIYA - October, 2012

Change the Weather History Date:

Monday, October 22, 2012

  Actual Average (KARA) Record (KARA)
Temperature  
Mean Temperature 71 °F -  
Max Temperature 83 °F 77 °F 89 °F (2004)
Min Temperature 59 °F 57 °F 40 °F (1976)
Cooling Degree Days 6    
Growing Degree Days 21 (Base 50)    
Moisture  
Dew Point 66 °F    
Average Humidity 82    
Maximum Humidity 100    
Minimum Humidity 54    
Precipitation  
Precipitation 0.01 in - - ()
Sea Level Pressure  
Sea Level Pressure 30.06 in    
Wind  
Wind Speed 4 mph ()    
Max Wind Speed 13 mph    
Max Gust Speed 16 mph    
Visibility 9.6 miles    
Events      
Averages and records for this station are not official NWS values.
T = Trace of Precipitation, MM = Missing Value Source: Averaged Metar Reports

Daily Weather History Graph

Daily Weather History Graph

Search for Another Location

Airport or City:

Trip Planner

Search our weather history database for the weather conditions in past years. The results will help you decide how hot, cold, wet, or windy it might be!

Date:

Astronomy

Oct. 22, 2012 Rise Set
Actual Time 7:15 AM CDT 6:29 PM CDT
Civil Twilight 6:50 AM CDT 6:54 PM CDT
Nautical Twilight 6:22 AM CDT 7:22 PM CDT
Astronomical Twilight 5:55 AM CDT 7:49 PM CDT
Moon 2:11 PM CDT (10/22) 12:32 AM CDT (10/22)
Length of Visible Light 12h 03m
Length of Day
11h 14m
First Quarter, 56% of the Moon is Illuminated
Oct 22
First Quarter
Oct 29
Full
Nov 6
Last Quarter
Nov 13
New
Nov 20
First Quarter

Hourly Weather History & Observations

Time (CDT) Temp. Heat Index Dew Point Humidity Pressure Visibility Wind Dir Wind Speed Gust Speed Precip Events Conditions
12:35 AM 65.3 °F - 64.6 °F 98% 30.05 in 10.0 mi East 3.5 mph - N/A   Clear
12:55 AM 63.7 °F - 63.7 °F 100% 30.05 in 10.0 mi Calm Calm - N/A   Clear
1:55 AM 63.5 °F - 63.5 °F 100% 30.05 in 10.0 mi East 4.6 mph - N/A   Clear
2:55 AM 63.1 °F - 63.1 °F 100% 30.04 in 10.0 mi East 4.6 mph - N/A   Clear
3:15 AM 63.5 °F - 63.5 °F 100% 30.04 in 10.0 mi East 4.6 mph - N/A   Clear
4:15 AM 63.9 °F - 63.9 °F 100% 30.03 in 10.0 mi East 4.6 mph - N/A   Clear
4:35 AM 63.5 °F - 63.5 °F 100% 30.03 in 10.0 mi East 3.5 mph - N/A   Clear
4:55 AM 63.0 °F - 63.0 °F 100% 30.04 in 10.0 mi Calm Calm - N/A   Clear
5:15 AM 61.2 °F - 61.2 °F 100% 30.05 in 7.0 mi Calm Calm - N/A   Clear
5:35 AM 61.0 °F - 61.0 °F 100% 30.05 in 1.5 mi Calm Calm - N/A   Mist
6:15 AM 61.0 °F - 61.0 °F 100% 30.07 in 4.0 mi Calm Calm - N/A   Clear
6:35 AM 59.4 °F - 59.4 °F 100% 30.07 in 1.2 mi Calm Calm - N/A   Mist
7:15 AM 60.3 °F - 60.3 °F 100% 30.08 in 10.0 mi Calm Calm - N/A   Clear
7:35 AM 61.9 °F - 61.9 °F 100% 30.09 in 10.0 mi East 3.5 mph - N/A   Clear
7:55 AM 63.5 °F - 63.5 °F 100% 30.09 in 10.0 mi East 3.5 mph - N/A   Clear
8:15 AM 65.5 °F - 65.3 °F 99% 30.09 in 10.0 mi East 4.6 mph - N/A   Clear
8:35 AM 68.0 °F - 66.2 °F 94% 30.10 in 10.0 mi East 4.6 mph - N/A   Clear
8:55 AM 70.3 °F - 66.2 °F 87% 30.11 in 10.0 mi East 5.8 mph - N/A   Clear
9:15 AM 72.1 °F - 66.7 °F 83% 30.11 in 10.0 mi East 4.6 mph - N/A   Clear
9:35 AM 74.1 °F - 67.1 °F 79% 30.11 in 10.0 mi East 5.8 mph - N/A   Clear
9:55 AM 76.3 °F - 67.1 °F 73% 30.11 in 10.0 mi East 8.1 mph - N/A   Clear
10:15 AM 77.0 °F - 66.6 °F 70% 30.11 in 10.0 mi ESE 8.1 mph - N/A   Clear
10:35 AM 78.4 °F - 66.9 °F 68% 30.11 in 10.0 mi East 6.9 mph - N/A   Clear
10:55 AM 79.5 °F - 66.7 °F 65% 30.11 in 10.0 mi SE 6.9 mph - N/A   Clear
11:15 AM 80.2 °F 82.2 °F 65.8 °F 61% 30.10 in 10.0 mi SE 11.5 mph 16.1 mph N/A   Clear
11:35 AM 80.8 °F 82.9 °F 66.0 °F 61% 30.10 in 10.0 mi ESE 8.1 mph - N/A   Clear
11:55 AM 81.3 °F 83.5 °F 66.0 °F 60% 30.09 in 10.0 mi SE 9.2 mph - N/A   Clear
12:15 PM 81.7 °F 83.6 °F 65.5 °F 58% 30.09 in 10.0 mi ESE 8.1 mph - N/A   Clear
12:35 PM 82.4 °F 84.1 °F 64.9 °F 55% 30.08 in 10.0 mi ESE 8.1 mph - N/A   Clear
12:55 PM 82.9 °F 84.8 °F 65.1 °F 55% 30.07 in 10.0 mi SE 9.2 mph - N/A   Clear
1:15 PM 82.9 °F 84.6 °F 64.6 °F 54% 30.06 in 10.0 mi SE 8.1 mph - N/A   Clear
1:35 PM 83.1 °F 85.7 °F 66.7 °F 58% 30.05 in 10.0 mi SE 8.1 mph - 0.01 in   Clear
1:55 PM 82.6 °F 85.1 °F 66.9 °F 59% 30.05 in 10.0 mi SSE 12.7 mph - 0.01 in   Clear
2:15 PM 82.6 °F 85.1 °F 66.9 °F 59% 30.04 in 10.0 mi South 9.2 mph 16.1 mph N/A   Clear
2:55 PM 83.5 °F 86.2 °F 67.3 °F 58% 30.03 in 10.0 mi SSE 10.4 mph - N/A   Clear
3:15 PM 83.3 °F 86.2 °F 67.5 °F 59% 30.03 in 10.0 mi SSE 9.2 mph - N/A   Clear
3:35 PM 82.8 °F 85.3 °F 67.3 °F 59% 30.03 in 10.0 mi SSE 11.5 mph - N/A   Clear
3:55 PM 82.4 °F 84.8 °F 66.7 °F 59% 30.03 in 10.0 mi South 9.2 mph - N/A   Clear
4:15 PM 82.6 °F 85.1 °F 66.9 °F 59% 30.02 in 10.0 mi SSE 10.4 mph - N/A   Clear
4:35 PM 82.2 °F 84.6 °F 66.6 °F 59% 30.03 in 10.0 mi SSE 10.4 mph - N/A   Clear
4:55 PM 81.5 °F 83.9 °F 66.9 °F 61% 30.03 in 10.0 mi South 9.2 mph - N/A   Clear
5:15 PM 80.8 °F 82.9 °F 66.4 °F 61% 30.03 in 10.0 mi SSE 10.4 mph - N/A   Clear
5:35 PM 79.7 °F - 66.4 °F 64% 30.03 in 10.0 mi SSE 8.1 mph - N/A   Clear
6:15 PM 76.5 °F - 67.1 °F 73% 30.03 in 10.0 mi SSE 4.6 mph - N/A   Clear
6:35 PM 74.5 °F - 66.9 °F 77% 30.04 in 10.0 mi SSE 3.5 mph - N/A   Clear
6:55 PM 74.1 °F - 67.1 °F 79% 30.04 in 10.0 mi Calm Calm - N/A   Clear
7:15 PM 73.4 °F - 67.3 °F 81% 30.04 in 10.0 mi SE 3.5 mph - N/A   Clear
7:35 PM 71.6 °F - 67.1 °F 86% 30.05 in 10.0 mi Calm Calm - N/A   Clear
7:55 PM 69.1 °F - 67.8 °F 96% 30.05 in 10.0 mi Calm Calm - N/A   Clear
8:15 PM 68.2 °F - 68.2 °F 100% 30.05 in 10.0 mi Calm Calm - N/A   Clear
8:35 PM 66.9 °F - 66.9 °F 100% 30.05 in 10.0 mi Calm Calm - N/A   Clear
8:55 PM 67.5 °F - 67.5 °F 100% 30.05 in 10.0 mi Calm Calm - N/A   Clear
9:15 PM 66.2 °F - 66.2 °F 100% 30.05 in 10.0 mi Calm Calm - N/A   Clear
9:35 PM 65.8 °F - 65.8 °F 100% 30.06 in 10.0 mi Calm Calm - N/A   Clear
9:55 PM 66.2 °F - 66.2 °F 100% 30.06 in 10.0 mi East 3.5 mph - N/A   Clear
10:15 PM 66.4 °F - 66.4 °F 100% 30.05 in 10.0 mi East 3.5 mph - N/A   Clear
10:35 PM 66.4 °F - 66.4 °F 100% 30.05 in 10.0 mi Calm Calm - N/A   Clear
10:55 PM 67.3 °F - 67.3 °F 100% 30.05 in 10.0 mi ESE 3.5 mph - N/A   Clear
11:15 PM 66.7 °F - 66.7 °F 100% 30.05 in 10.0 mi East 4.6 mph - N/A   Clear
11:35 PM 65.8 °F - 65.8 °F 100% 30.05 in 10.0 mi East 3.5 mph - N/A   Clear
11:55 PM 66.2 °F - 66.2 °F 100% 30.05 in 10.0 mi East 4.6 mph - N/A   Clear